HOURLY OBS INDEX

018

Western Agricultural

CEDUNA AMO

Site: 018012
Alt: 15.3m
2km E of CEDUNA


  Time     Wind        Temp  DP   Baro     Rain since   Rain past  Vis(m), Cloud(base in m), Weather
  local        km/h                         9am  last   hr   10m    
Tue 06:30   NE  6/  9  13.8 11.1  1023.0    0.4   0.0   0.0   0.0   -----|OC1230 
Tue 07:00  ENE  6/  9  14.1 11.3  1023.4    0.4   0.0   0.0   0.0   -----|OC1170 
Tue 07:30    C  0/  0  14.1 11.4  1023.7    0.4   0.0   0.0   0.0   -----|OC1110 
Tue 08:00   NE  6/  9  14.1 11.3  1024.1    0.4   0.0   0.0   0.0   -----|OC1110 
Tue 08:30    N  6/  7  14.5 11.5  1024.4    0.4   0.0   0.0   0.0   -----|OC1110 
Tue 09:00    N  6/  7  15.2 11.4  1024.7    0.4   0.0   0.0   0.0   -----|OC1170 
Tue 09:30    N  6/  7  15.8 11.0  1025.0    0.0   0.0   0.0   0.0   -----|OC1170 
Tue 10:00    E  9/ 11  16.7 10.8  1025.2    0.0   0.0   0.0   0.0   10000|OC1110 
Tue 10:30  SSE 13/ 20  17.9 11.0  1025.3    0.0   0.0   0.0   0.0   10000|BR 990 OC1200 
Tue 11:00  SSE 13/ 22  17.4 10.8  1025.3    0.0   0.0   0.0   0.0   10000|OC 930 
Tue 11:30  SSE 13/ 19  18.2 10.3  1025.2    0.0   0.0   0.0   0.0   10000|OC1050 
Tue 12:00    S 15/ 19  18.4 10.5  1025.1    0.0   0.0   0.0   0.0   10000|OC1110 

CLEVE AERODROME

Site: 018116
Alt: 175.0m
125km SW of WHYALLA


  Time     Wind        Temp  DP   Baro     Rain since   Rain past  Vis(m), Cloud(base in m), Weather
  local        km/h                         9am  last   hr   10m    
Tue 06:30    W 13/ 17  10.4  5.6  1022.5    0.0   0.0   0.0   0.0   ----- 
Tue 07:00  WNW 11/ 13  10.2  5.4  1023.0    0.0   0.0   0.0   0.0   ----- 
Tue 07:30    W 13/ 15  10.2  5.8  1023.2    0.0   0.0   0.0   0.0   ----- 
Tue 08:00    W  9/ 13  11.4  6.1  1023.4    0.0   0.0   0.0   0.0   ----- 
Tue 08:30    W  9/ 13  12.5  6.3  1023.7    0.0   0.0   0.0   0.0   ----- 
Tue 09:00    W 11/ 15  13.3  6.4  1023.9    0.0   0.0   0.0   0.0   ----- 
Tue 09:30  WSW 15/ 19  14.5  7.1  1024.3    0.0   0.0   0.0   0.0   ----- 
Tue 10:00   SW 19/ 24  14.8  7.1  1024.5    0.0   0.0   0.0   0.0   ----- 
Tue 10:30   SW 15/ 20  15.2  7.7  1024.9    0.0   0.0   0.0   0.0   ----- 
Tue 11:00  SSW 15/ 22  15.3  8.5  1025.1    0.0   0.0   0.0   0.0   ----- 
Tue 11:30   SW 11/ 15  16.2  8.2  1024.9    0.0   0.0   0.0   0.0   ----- 
Tue 12:00  SSE 13/ 26  17.5  8.1  1024.6    0.0   0.0   0.0   0.0   ----- 

COFFIN BAY (POINT AVOID)

Site: 018230
Alt: 35.0m
48km WNW of PORT LINCOLN


  Time     Wind        Temp  DP   Baro     Rain since   Rain past  Vis(m), Cloud(base in m), Weather
  local        km/h                         9am  last   hr   10m    
Tue 06:30  SSW 11/ 15  15.5 11.5  1022.1    0.0   0.0   0.0   0.0   ----- 
Tue 07:00  SSW 19/ 26  15.6 12.7  1022.3    0.0   0.0   0.0   0.0   ----- 
Tue 07:30  SSW 13/ 19  15.2 12.0  1022.6    0.0   0.0   0.0   0.0   ----- 
Tue 08:00   SW 13/ 15  14.9 12.6  1022.9    0.0   0.0   0.0   0.0   ----- 
Tue 08:30   SW 13/ 17  15.5 13.0  1023.3    0.0   0.0   0.0   0.0   ----- 
Tue 09:00  SSW  9/ 15  16.6 13.5  1023.6    0.0   0.0   0.0   0.0   ----- 
Tue 09:30  SSW 13/ 19  16.5 13.8  1023.7    0.0   0.0   0.0   0.0   ----- 
Tue 10:00  WSW 13/ 20  16.8 14.4  1024.1    0.0   0.0   0.0   0.0   ----- 
Tue 10:30   SW 15/ 20  16.5 16.2  1024.3    0.0   0.0   0.0   0.0   ----- 
Tue 11:00   SW 11/ 17  17.9 14.2  1024.5    0.0   0.0   0.0   0.0   ----- 
Tue 11:30  SSW 13/ 20  17.9 13.8  1024.4    0.0   0.0   0.0   0.0   ----- 
Tue 12:00  SSW 11/ 17  18.1 13.8  1024.3    0.0   0.0   0.0   0.0   ----- 

CULTANA (DEFENCE)

Site: 018229
Alt: 171 m
43km SW of PORT AUGUSTA


  Time     Wind        Temp  DP   Baro     Rain since   Rain past  Vis(m), Cloud(base in m), Weather
  local        km/h                         9am  last   hr   10m    
Tue 06:30    S 11/ 13   9.8  4.8  ------    0.0   0.0   0.0   0.0   ----- 
Tue 07:00  SSW 11/ 17  10.4  5.0  ------    0.0   0.0   0.0   0.0   ----- 
Tue 07:30    S 13/ 19  10.9  4.8  ------    0.0   0.0   0.0   0.0   ----- 
Tue 08:00    S 11/ 15  12.4  4.9  ------    0.0   0.0   0.0   0.0   ----- 
Tue 08:30    S  7/ 11  13.4  5.1  ------    0.0   0.0   0.0   0.0   ----- 
Tue 09:00   SE  7/  9  14.7  6.3  ------    0.0   0.0   0.0   0.0   ----- 
Tue 09:30  ESE  9/ 13  15.6  6.9  ------    0.0   0.0   0.0   0.0   ----- 
Tue 10:00  ESE 13/ 19  15.9  7.7  ------    0.0   0.0   0.0   0.0   ----- 
Tue 10:30  SSE  9/ 13  16.0  7.5  ------    0.0   0.0   0.0   0.0   ----- 
Tue 11:00  SSW 11/ 22  16.8  8.2  ------    0.0   0.0   0.0   0.0   ----- 
Tue 11:30   SE 11/ 15  17.2  7.8  ------    0.0   0.0   0.0   0.0   ----- 
Tue 12:00  SSE 11/ 17  17.9  7.9  ------    0.0   0.0   0.0   0.0   ----- 

CUMMINS AERO

Site: 018217
Alt: 60.1m
54km NNW of PORT LINCOLN


  Time     Wind        Temp  DP   Baro     Rain since   Rain past  Vis(m), Cloud(base in m), Weather
  local        km/h                         9am  last   hr   10m    
Tue 06:30    C  0/  0  12.8  6.2  1022.6    0.0   0.0   0.0   0.0   ----- 
Tue 07:00    C  0/  0  12.4  6.0  1023.1    0.0   0.0   0.0   0.0   ----- 
Tue 07:30    C  0/  0  11.8  5.4  1023.2    0.0   0.0   0.0   0.0   ----- 
Tue 08:00    C  0/  0  11.8  6.1  1023.4    0.0   0.0   0.0   0.0   ----- 
Tue 08:30    C  0/  0  12.5  6.5  1023.8    0.0   0.0   0.0   0.0   ----- 
Tue 09:00    N  6/  7  14.6  7.4  1024.0    0.0   0.0   0.0   0.0   ----- 
Tue 09:30    C  0/  0  16.3  8.3  1024.3    0.0   0.0   0.0   0.0   ----- 
Tue 10:00  WSW  9/ 19  17.2  9.1  1024.7    0.0   0.0   0.0   0.0   ----- 
Tue 10:30  SSW 13/ 19  17.4  8.8  1024.7    0.0   0.0   0.0   0.0   ----- 
Tue 11:00    S 13/ 19  18.7  8.9  1024.7    0.0   0.0   0.0   0.0   ----- 
Tue 11:30   SW 15/ 19  18.4  9.2  1024.5    0.0   0.0   0.0   0.0   ----- 
Tue 12:00   SW 13/ 19  19.2  9.4  1024.4    0.0   0.0   0.0   0.0   ----- 

MINNIPA PIRSA

Site: 018195
Alt: 165.0m
160km ESE of CEDUNA


  Time     Wind        Temp  DP   Baro     Rain since   Rain past  Vis(m), Cloud(base in m), Weather
  local        km/h                         9am  last   hr   10m    
Tue 06:30    C  0/  0   8.9  4.5  1023.7    0.0   0.0   0.0   0.0   ----- 
Tue 07:00    C  0/  0  11.1  7.0  1023.9    0.0   0.0   0.0   0.0   ----- 
Tue 07:30    C  0/  0  12.1  7.2  1024.2    0.0   0.0   0.0   0.0   ----- 
Tue 08:00    E  7/  9  13.0  7.0  1024.5    0.0   0.0   0.0   0.0   ----- 
Tue 08:30  ESE  7/ 11  13.8  6.4  1024.8    0.0   0.0   0.0   0.0   ----- 
Tue 09:00   SE  9/ 13  14.3  6.2  1025.2    0.0   0.0   0.0   0.0   ----- 
Tue 09:30  ESE 11/ 13  14.7  6.5  1025.6    0.0   0.0   0.0   0.0   ----- 
Tue 10:00   SE 13/ 17  15.4  6.4  1026.0    0.0   0.0   0.0   0.0   ----- 
Tue 10:30  SSE 15/ 24  15.8  6.3  1026.0    0.0   0.0   0.0   0.0   ----- 
Tue 11:00  SSE 15/ 24  17.1  6.6  1025.9    0.0   0.0   0.0   0.0   ----- 
Tue 11:30    S 17/ 24  16.9  6.1  1025.7    0.0   0.0   0.0   0.0   ----- 
Tue 12:00    S 15/ 28  18.0  6.2  1025.5    0.0   0.0   0.0   0.0   ----- 

NEPTUNE ISLAND

Site: 018115
Alt: 32.0m
72km SSE of PORT LINCOLN


  Time     Wind        Temp  DP   Baro     Rain since   Rain past  Vis(m), Cloud(base in m), Weather
  local        km/h                         9am  last   hr   10m    
Tue 06:30  WSW 26/ 32  15.6----  1021.4   ----  ----  ----   0.0   ----- 
Tue 07:00  WSW 24/ 30  15.5----  1021.8   ----  ----  ----   0.0   ----- 
Tue 07:30    W 26/ 35  16.2----  1022.0   ----  ----  ----   0.0   ----- 
Tue 08:00  WSW 24/ 28  15.7----  1022.5   ----  ----  ----   0.0   ----- 
Tue 08:30  SSW 28/ 33  15.8----  1022.8   ----  ----  ----   0.0   ----- 
Tue 09:00   SW 26/ 35  15.7----  1023.4   ----  ----  ----   0.0   ----- 
Tue 09:30  WSW 20/ 26  16.2----  1023.4    0.0  ----  ----   0.0   ----- 
Tue 10:00  WSW 22/ 32  16.3----  1023.7    0.0   0.0  ----   0.0   ----- 
Tue 10:30   SW 17/ 20  16.8----  1023.9    0.0   0.0   0.0   0.0   ----- 
Tue 11:00   SW 20/ 24  17.5----  1023.9    0.0   0.0   0.0   0.0   ----- 
Tue 11:30   SW 19/ 20  18.0----  1024.0    0.0   0.0   0.0   0.0   ----- 
Tue 12:00  WSW 17/ 20  18.6----  1023.9    0.0   0.0   0.0   0.0   ----- 

NORTH SHIELDS (PORT LINCOLN AWS)

Site: 018192
Alt: 8.5m
14km N of PORT LINCOLN


  Time     Wind        Temp  DP   Baro     Rain since   Rain past  Vis(m), Cloud(base in m), Weather
  local        km/h                         9am  last   hr   10m    
Tue 06:30    W  9/ 13  14.8  9.2  1022.5    0.0   0.0   0.0   0.0   10000|BR1170 OC1380 
Tue 07:00    W 13/ 17  14.9  9.1  1022.7    0.0   0.0   0.0   0.0   10000|OC1350 
Tue 07:30  WNW 13/ 17  14.8  9.2  1023.0    0.0   0.0   0.0   0.0   10000|OC1350 
Tue 08:00    W 13/ 15  15.0  8.9  1023.2    0.0   0.0   0.0   0.0   10000|OC1350 
Tue 08:30    W 11/ 13  15.7  9.1  1023.6    0.0   0.0   0.0   0.0   10000|OC1350 
Tue 09:00   SW 11/ 17  16.5  9.4  1023.9    0.0   0.0   0.0   0.0   10000|SC1350 
Tue 09:30   SW 15/ 20  17.4  9.3  1024.0    0.0   0.0   0.0   0.0   10000 
Tue 10:00   SW 17/ 26  18.0  9.4  1024.3    0.0   0.0   0.0   0.0   10000|SC1020 
Tue 10:30   SW 17/ 24  18.1 10.5  1024.5    0.0   0.0   0.0   0.0   10000|OC1050 
Tue 11:00   SW 17/ 20  17.6 10.5  1024.7    0.0   0.0   0.0   0.0   10000 
Tue 11:30    S 24/ 30  17.8 12.3  1024.5    0.0   0.0   0.0   0.0   10000|BR 990 OC1230 
Tue 12:00    S 17/ 22  17.7 10.8  1024.5    0.0   0.0   0.0   0.0   10000|OC1110 

NULLARBOR

Site: 018106
Alt: 64.0m
193km E of EUCLA (WA)


  Time     Wind        Temp  DP   Baro     Rain since   Rain past  Vis(m), Cloud(base in m), Weather
  local        km/h                         9am  last   hr   10m    
Tue 06:30    E 11/ 15  15.1 14.9  1024.2    0.0   0.0   0.0   0.0   10000|BR 570 OC 750 OC1050 
Tue 06:36    E  9/ 11  15.0 14.8  1024.3    0.0   0.0  ----   0.0   10000|BR 570 OC 810 OC 900 
Tue 07:00    N  7/  9  14.4 14.4  1024.6    0.0   0.0   0.0   0.0   10000|SC 570 BR 810 OC1020 
Tue 07:09    N  2/  6  14.4 14.4  1024.6    0.0   0.0  ----   0.0    7000|SC 420 SC 660 OC 810 
Tue 07:30    E  6/  9  14.6 14.6  1024.8    0.2   0.2   0.2   0.2    3100|SC 330 BR 630 BR 840 
Tue 08:00  NNE  7/  9  14.2 14.2  1024.8    0.2   0.0   0.2   0.0   10000|BR 600 OC 840 
Tue 08:30  NNE  4/  9  14.6 14.6  1025.1    0.2   0.0   0.0   0.0   10000|SC 360 SC 660 SC 780 
Tue 09:00  NNE  7/ 11  14.7 14.7  1025.5    0.2   0.0   0.0   0.0   10000|SC 810 BR 990 
Tue 09:30    N 11/ 15  16.3 16.3  1025.6    0.0   0.0   0.0   0.0   10000|BR1050 
Tue 10:00  NNE 13/ 19  16.4 15.9  1026.0    0.0   0.0   0.0   0.0   10000|OC 990 
Tue 10:30   NE 15/ 20  17.9 15.3  1026.2    0.0   0.0   0.0   0.0   10000|SC 420 SC 990 
Tue 11:00  NNE  7/ 15  19.2 14.5  1026.3    0.0   0.0   0.0   0.0   10000|SC 570 BR1050 
Tue 11:22    E 15/ 22  17.4 14.5  1026.4    0.0   0.0  ----   0.0    6000|BR 690 OC 810 OC1050 
Tue 11:30  ESE 13/ 20  17.4 15.4  1026.4    0.0   0.0   0.0   0.0    3900|BR 630 BR 810 OC 960 
Tue 11:45  ESE 17/ 24  18.3 14.4  1026.3    0.0   0.0  ----   0.0   10000|SC 630 BR 810 OC1080 
Tue 12:00  ESE 17/ 24  18.4 14.3  1026.3    0.0   0.0   0.0   0.0   10000|SC 630 BR 870 OC1080 
Tue 12:05  ESE 17/ 24  17.8 13.9  1026.2    0.0   0.0  ----   0.0    6000|SC 690 BR 870 OC1080 
Tue 12:22  ESE 11/ 17  18.8 13.6  1026.1    0.0   0.0   0.0   0.0   10000|SC 630 SC 870 OC1080 

PORT AUGUSTA AERO

Site: 018201
Alt: 14.0m
6km WSW of PORT AUGUSTA


  Time     Wind        Temp  DP   Baro     Rain since   Rain past  Vis(m), Cloud(base in m), Weather
  local        km/h                         9am  last   hr   10m    
Tue 06:30   SW 11/ 19  12.5  5.0  1021.8    0.0   0.0   0.0   0.0   10000|OC1290 
Tue 07:00  WSW 11/ 13  12.9  4.8  1022.2    0.0   0.0   0.0   0.0   10000|OC1230 
Tue 07:30  SSE 13/ 19  15.6  8.4  1022.6    0.0   0.0   0.0   0.0   10000|OC1170 
Tue 08:00    S  9/ 13  15.9  8.6  1022.8    0.0   0.0   0.0   0.0   10000|OC1170 
Tue 08:30  SSW  9/ 13  16.3  8.8  1023.3    0.0   0.0   0.0   0.0   10000|OC1170 
Tue 09:00   SE 20/ 26  17.2  7.3  1023.2    0.0   0.0   0.0   0.0   10000|OC1230 
Tue 09:30  ESE 13/ 17  17.5  7.3  1023.6    0.0   0.0   0.0   0.0   10000|OC1230 
Tue 10:00   SE 13/ 17  17.7  6.9  1024.0    0.0   0.0   0.0   0.0   10000|OC1230 
Tue 10:30  SSE 13/ 19  18.4  6.6  1024.1    0.0   0.0   0.0   0.0   10000|OC1290 
Tue 11:00  SSE 24/ 32  19.6  6.7  1024.0    0.0   0.0   0.0   0.0   10000|BR1350 
Tue 11:30  SSE 19/ 32  20.4  6.7  1023.8    0.0   0.0   0.0   0.0   10000|SC1350 
Tue 12:00  SSE 26/ 39  21.2  7.4  1023.4    0.0   0.0   0.0   0.0   10000|SC1350 

WHYALLA AERO

Site: 018120
Alt: 9.3m
5km WSW of WHYALLA


  Time     Wind        Temp  DP   Baro     Rain since   Rain past  Vis(m), Cloud(base in m), Weather
  local        km/h                         9am  last   hr   10m    
Tue 06:30  SSW 13/ 20  15.3  6.6  1022.1    0.0   0.0   0.0   0.0   10000|OC1050 
Tue 07:00  SSW 11/ 15  15.3  6.3  1022.5    0.0   0.0   0.0   0.0   10000|OC1050 
Tue 07:30  SSW 11/ 15  15.5  6.8  1022.9    0.0   0.0   0.0   0.0   10000|OC 990 
Tue 08:00   SW  9/ 13  15.6  6.9  1023.1    0.0   0.0   0.0   0.0   10000|OC 960 
Tue 08:30   NW  6/  9  15.8  8.5  1023.3    0.0   0.0   0.0   0.0   10000|OC 960 
Tue 09:00  WSW  9/ 11  16.0  8.0  1023.6    0.0   0.0   0.0   0.0   10000|OC1020 
Tue 09:30    W  6/  7  16.5  8.5  1023.9    0.0   0.0   0.0   0.0   10000|OC1110 
Tue 10:00  WSW  7/ 13  17.0  7.9  1024.3    0.0   0.0   0.0   0.0   10000|OC1170 
Tue 10:30   SE  6/  9  17.2  7.8  1024.5    0.0   0.0   0.0   0.0   10000|OC1170 
Tue 11:00  ENE  6/ 13  17.3  9.2  1024.5    0.0   0.0   0.0   0.0   10000|OC1080 
Tue 11:30  NNE  7/ 15  17.5  8.9  1024.3    0.0   0.0   0.0   0.0   10000|OC1140 
Tue 12:00  SSE 13/ 22  18.1 10.0  1024.2    0.0   0.0   0.0   0.0   10000|OC1080 

WUDINNA AERO

Site: 018083
Alt: 86.4m
191km N of PORT LINCOLN


  Time     Wind        Temp  DP   Baro     Rain since   Rain past  Vis(m), Cloud(base in m), Weather
  local        km/h                         9am  last   hr   10m    
Tue 06:30    C  0/  0  10.7  6.5  1023.2    0.0   0.0   0.0   0.0   ----- 
Tue 07:00   NW  7/  9  11.3  6.4  1023.5    0.0   0.0   0.0   0.0   ----- 
Tue 07:30   NW  6/  9  12.0  6.9  1023.7    0.0   0.0   0.0   0.0   ----- 
Tue 08:00    C  0/  0  12.6  7.3  1024.2    0.0   0.0   0.0   0.0   ----- 
Tue 08:30    C  0/  0  13.6  8.0  1024.5    0.0   0.0   0.0   0.0   ----- 
Tue 09:00   NW  6/  9  15.0  7.5  1024.7    0.0   0.0   0.0   0.0   ----- 
Tue 09:30  SSE 11/ 15  15.6  6.6  1025.1    0.0   0.0   0.0   0.0   ----- 
Tue 10:00   SE 11/ 15  16.9  6.7  1025.5    0.0   0.0   0.0   0.0   ----- 
Tue 10:30  SSE 13/ 20  17.1  6.3  1025.6    0.0   0.0   0.0   0.0   ----- 
Tue 11:00  SSE 15/ 26  17.7  6.3  1025.5    0.0   0.0   0.0   0.0   ----- 
Tue 11:30  SSE 20/ 28  18.1  6.3  1025.3    0.0   0.0   0.0   0.0   ----- 
Tue 12:00    S 17/ 26  19.0  6.2  1025.0    0.0   0.0   0.0   0.0   -----